Marlboro, Massachusetts
Current Conditions -  °F | °C
As of 12:56 PM on Monday 24 Nov 2014 (Local Time) from KBED Reporting Station
Overcast Overcast  
Wind Chill: 64°   Ceiling: 1400
Heat Index: 64°   Visibility: 10mi
Dew Point: 62°   Wind: 13mph
Humidity: 93%   Direction: 200°SSW
Pressure: 29.61"   Gusts: 21mph
Location:  42.3495°N, 71.5482°W
Report Text: KBED 241756Z 20011G18KT 10SM BKN014 OVC026 18/17 A2961 RMK AO2 RAB33E44 SLP041 P0000 60016 T01780167 10178 20128 56030
Loading
Personal Weather Stations






























Interactive Weather Map New forecast layout! Learn more

10-Day Weather Forecast

Advertisements
Track Severe Weather on mobile